sensor_id;sensor_type;location;lat;lon;timestamp;temperature;humidity
18506;DHT22;9382;53.242;10.438;2023-10-13T09:37:17;16.80;99.90
18506;DHT22;9382;53.242;10.438;2023-10-13T09:39:56;16.90;99.90
18506;DHT22;9382;53.242;10.438;2023-10-13T09:42:33;17.00;99.90
18506;DHT22;9382;53.242;10.438;2023-10-13T09:45:22;17.10;99.90
18506;DHT22;9382;53.242;10.438;2023-10-13T09:48:42;17.20;99.90
18506;DHT22;9382;53.242;10.438;2023-10-13T09:54:29;17.60;99.90
18506;DHT22;9382;53.242;10.438;2023-10-13T09:57:23;17.60;99.90
18506;DHT22;9382;53.242;10.438;2023-10-13T10:06:39;17.70;99.90
18506;DHT22;9382;53.242;10.438;2023-10-13T10:11:54;17.70;99.90
18506;DHT22;9382;53.242;10.438;2023-10-13T10:12:55;17.80;99.90
18506;DHT22;9382;53.242;10.438;2023-10-13T10:15:54;17.80;99.90
18506;DHT22;9382;53.242;10.438;2023-10-13T10:18:41;17.80;99.90
18506;DHT22;9382;53.242;10.438;2023-10-13T10:21:34;17.80;99.90
18506;DHT22;9382;53.242;10.438;2023-10-13T10:27:40;17.90;99.90
18506;DHT22;9382;53.242;10.438;2023-10-13T10:30:29;17.90;99.90
18506;DHT22;9382;53.242;10.438;2023-10-13T10:40:11;18.20;99.90
18506;DHT22;9382;53.242;10.438;2023-10-13T10:51:17;18.80;99.90
18506;DHT22;9382;53.242;10.438;2023-10-13T12:30:33;26.00;99.90
18506;DHT22;9382;53.242;10.438;2023-10-13T12:33:26;26.50;99.90
18506;DHT22;9382;53.242;10.438;2023-10-13T12:36:25;27.80;99.90
18506;DHT22;9382;53.242;10.438;2023-10-13T12:42:53;26.20;99.90
18506;DHT22;9382;53.242;10.438;2023-10-13T12:46:03;25.10;99.90
18506;DHT22;9382;53.242;10.438;2023-10-13T12:49:07;24.20;99.90
18506;DHT22;9382;53.242;10.438;2023-10-13T12:51:59;25.40;99.90
18506;DHT22;9382;53.242;10.438;2023-10-13T12:57:49;25.70;99.90
18506;DHT22;9382;53.242;10.438;2023-10-13T13:00:18;24.50;99.90
18506;DHT22;9382;53.242;10.438;2023-10-13T13:03:33;23.80;99.90
18506;DHT22;9382;53.242;10.438;2023-10-13T13:06:19;23.00;99.90
18506;DHT22;9382;53.242;10.438;2023-10-13T13:08:53;22.60;99.90
18506;DHT22;9382;53.242;10.438;2023-10-13T13:11:21;22.50;99.90
18506;DHT22;9382;53.242;10.438;2023-10-13T13:14:14;22.30;99.90
18506;DHT22;9382;53.242;10.438;2023-10-13T13:16:42;22.10;99.90
18506;DHT22;9382;53.242;10.438;2023-10-13T13:19:24;22.10;99.90
18506;DHT22;9382;53.242;10.438;2023-10-13T13:21:52;22.00;99.90
18506;DHT22;9382;53.242;10.438;2023-10-13T13:24:29;22.10;99.90
18506;DHT22;9382;53.242;10.438;2023-10-13T13:26:57;22.50;99.90
18506;DHT22;9382;53.242;10.438;2023-10-13T13:29:28;22.70;99.90
18506;DHT22;9382;53.242;10.438;2023-10-13T13:32:05;23.30;99.90
18506;DHT22;9382;53.242;10.438;2023-10-13T13:34:49;23.80;99.90
18506;DHT22;9382;53.242;10.438;2023-10-13T13:37:26;25.10;99.90
18506;DHT22;9382;53.242;10.438;2023-10-13T13:40:13;25.50;99.90
18506;DHT22;9382;53.242;10.438;2023-10-13T13:42:52;25.10;99.90
18506;DHT22;9382;53.242;10.438;2023-10-13T13:45:34;24.60;99.90
18506;DHT22;9382;53.242;10.438;2023-10-13T13:48:07;24.00;99.90
18506;DHT22;9382;53.242;10.438;2023-10-13T13:50:52;23.50;99.90
18506;DHT22;9382;53.242;10.438;2023-10-13T13:53:30;23.00;99.90
18506;DHT22;9382;53.242;10.438;2023-10-13T13:56:05;22.70;99.90
18506;DHT22;9382;53.242;10.438;2023-10-13T13:58:34;22.50;99.90
18506;DHT22;9382;53.242;10.438;2023-10-13T14:01:08;22.70;99.90
18506;DHT22;9382;53.242;10.438;2023-10-13T14:03:41;23.10;99.90
18506;DHT22;9382;53.242;10.438;2023-10-13T14:06:17;23.20;99.90
18506;DHT22;9382;53.242;10.438;2023-10-13T14:08:47;23.00;99.90
18506;DHT22;9382;53.242;10.438;2023-10-13T14:11:21;22.70;99.90
18506;DHT22;9382;53.242;10.438;2023-10-13T14:14:04;22.50;99.90
18506;DHT22;9382;53.242;10.438;2023-10-13T14:16:54;22.30;99.90
18506;DHT22;9382;53.242;10.438;2023-10-13T14:19:31;22.10;99.90
18506;DHT22;9382;53.242;10.438;2023-10-13T14:22:22;22.10;99.90
18506;DHT22;9382;53.242;10.438;2023-10-13T14:25:10;22.00;99.90
18506;DHT22;9382;53.242;10.438;2023-10-13T14:27:40;21.90;99.90
18506;DHT22;9382;53.242;10.438;2023-10-13T14:30:10;21.80;99.90
18506;DHT22;9382;53.242;10.438;2023-10-13T14:32:46;21.80;99.90
18506;DHT22;9382;53.242;10.438;2023-10-13T14:35:13;21.80;99.90
18506;DHT22;9382;53.242;10.438;2023-10-13T14:38:02;22.60;99.90
18506;DHT22;9382;53.242;10.438;2023-10-13T14:40:57;23.80;99.90
18506;DHT22;9382;53.242;10.438;2023-10-13T14:43:26;24.10;99.90
18506;DHT22;9382;53.242;10.438;2023-10-13T14:46:08;23.80;99.90
18506;DHT22;9382;53.242;10.438;2023-10-13T14:48:35;23.40;99.90
18506;DHT22;9382;53.242;10.438;2023-10-13T14:51:11;23.00;99.90
18506;DHT22;9382;53.242;10.438;2023-10-13T14:53:56;22.80;99.90
18506;DHT22;9382;53.242;10.438;2023-10-13T14:57:02;22.60;99.90
18506;DHT22;9382;53.242;10.438;2023-10-13T14:59:43;22.50;99.90
18506;DHT22;9382;53.242;10.438;2023-10-13T15:02:14;22.30;99.90
18506;DHT22;9382;53.242;10.438;2023-10-13T15:04:41;22.30;99.90
18506;DHT22;9382;53.242;10.438;2023-10-13T15:07:08;22.20;99.90
18506;DHT22;9382;53.242;10.438;2023-10-13T15:09:37;22.20;99.90
18506;DHT22;9382;53.242;10.438;2023-10-13T15:12:08;22.20;99.90
18506;DHT22;9382;53.242;10.438;2023-10-13T15:14:36;22.60;99.90
18506;DHT22;9382;53.242;10.438;2023-10-13T15:17:02;23.00;99.90
18506;DHT22;9382;53.242;10.438;2023-10-13T15:19:31;23.10;99.90
18506;DHT22;9382;53.242;10.438;2023-10-13T15:22:04;23.30;99.90
18506;DHT22;9382;53.242;10.438;2023-10-13T15:24:43;23.20;99.90
18506;DHT22;9382;53.242;10.438;2023-10-13T15:27:26;23.00;99.90
18506;DHT22;9382;53.242;10.438;2023-10-13T15:29:54;22.70;99.90
18506;DHT22;9382;53.242;10.438;2023-10-13T15:32:31;22.50;99.90
18506;DHT22;9382;53.242;10.438;2023-10-13T15:35:18;22.20;99.90
18506;DHT22;9382;53.242;10.438;2023-10-13T15:37:49;22.00;99.90
18506;DHT22;9382;53.242;10.438;2023-10-13T15:40:18;21.80;99.90
18506;DHT22;9382;53.242;10.438;2023-10-13T15:42:48;21.70;99.90
18506;DHT22;9382;53.242;10.438;2023-10-13T15:45:15;21.60;99.90
18506;DHT22;9382;53.242;10.438;2023-10-13T15:48:07;21.40;99.90
18506;DHT22;9382;53.242;10.438;2023-10-13T15:50:43;21.40;99.90
18506;DHT22;9382;53.242;10.438;2023-10-13T15:53:14;21.40;99.90
18506;DHT22;9382;53.242;10.438;2023-10-13T15:55:51;21.30;99.90
18506;DHT22;9382;53.242;10.438;2023-10-13T15:58:19;21.30;99.90
18506;DHT22;9382;53.242;10.438;2023-10-13T16:00:48;21.30;99.90
18506;DHT22;9382;53.242;10.438;2023-10-13T16:03:15;21.30;99.90
18506;DHT22;9382;53.242;10.438;2023-10-13T16:05:48;21.30;99.90
18506;DHT22;9382;53.242;10.438;2023-10-13T16:08:15;21.30;99.90
18506;DHT22;9382;53.242;10.438;2023-10-13T16:10:45;21.30;99.90
18506;DHT22;9382;53.242;10.438;2023-10-13T16:13:12;21.40;99.90
18506;DHT22;9382;53.242;10.438;2023-10-13T16:15:41;21.40;99.90
18506;DHT22;9382;53.242;10.438;2023-10-13T16:18:09;21.30;99.90
18506;DHT22;9382;53.242;10.438;2023-10-13T16:20:36;21.30;99.90
18506;DHT22;9382;53.242;10.438;2023-10-13T16:23:04;21.30;99.90
18506;DHT22;9382;53.242;10.438;2023-10-13T16:25:41;21.30;99.90
18506;DHT22;9382;53.242;10.438;2023-10-13T16:28:10;21.30;99.90
18506;DHT22;9382;53.242;10.438;2023-10-13T16:30:37;21.30;99.90
18506;DHT22;9382;53.242;10.438;2023-10-13T16:33:11;21.30;99.90
18506;DHT22;9382;53.242;10.438;2023-10-13T16:35:41;21.30;99.90
18506;DHT22;9382;53.242;10.438;2023-10-13T16:38:11;21.30;99.90
18506;DHT22;9382;53.242;10.438;2023-10-13T16:40:39;21.30;99.90
18506;DHT22;9382;53.242;10.438;2023-10-13T16:43:25;21.30;99.90
18506;DHT22;9382;53.242;10.438;2023-10-13T16:45:51;21.30;99.90
18506;DHT22;9382;53.242;10.438;2023-10-13T16:48:20;21.30;99.90
18506;DHT22;9382;53.242;10.438;2023-10-13T16:51:01;21.30;99.90
18506;DHT22;9382;53.242;10.438;2023-10-13T16:53:39;21.50;99.90
18506;DHT22;9382;53.242;10.438;2023-10-13T16:56:07;21.50;99.90
18506;DHT22;9382;53.242;10.438;2023-10-13T16:58:36;21.50;99.90
18506;DHT22;9382;53.242;10.438;2023-10-13T17:01:03;21.50;99.90
18506;DHT22;9382;53.242;10.438;2023-10-13T17:03:43;21.50;99.90
18506;DHT22;9382;53.242;10.438;2023-10-13T17:06:12;21.50;99.90
18506;DHT22;9382;53.242;10.438;2023-10-13T17:08:40;21.50;99.90
18506;DHT22;9382;53.242;10.438;2023-10-13T17:11:07;21.50;99.90
18506;DHT22;9382;53.242;10.438;2023-10-13T17:13:37;21.50;99.90
18506;DHT22;9382;53.242;10.438;2023-10-13T17:16:12;21.50;99.90
18506;DHT22;9382;53.242;10.438;2023-10-13T17:18:39;21.50;99.90
18506;DHT22;9382;53.242;10.438;2023-10-13T17:21:20;21.60;99.90
18506;DHT22;9382;53.242;10.438;2023-10-13T17:23:54;21.60;99.90
18506;DHT22;9382;53.242;10.438;2023-10-13T17:26:24;21.70;99.90
18506;DHT22;9382;53.242;10.438;2023-10-13T17:28:55;21.70;99.90
18506;DHT22;9382;53.242;10.438;2023-10-13T17:31:24;21.70;99.90
18506;DHT22;9382;53.242;10.438;2023-10-13T17:34:09;21.60;99.90
18506;DHT22;9382;53.242;10.438;2023-10-13T17:36:46;21.60;99.90
18506;DHT22;9382;53.242;10.438;2023-10-13T17:39:19;21.60;99.90
18506;DHT22;9382;53.242;10.438;2023-10-13T17:41:49;21.60;99.90
18506;DHT22;9382;53.242;10.438;2023-10-13T17:44:19;21.60;99.90
18506;DHT22;9382;53.242;10.438;2023-10-13T17:46:46;21.60;99.90
18506;DHT22;9382;53.242;10.438;2023-10-13T17:49:13;21.60;99.90
18506;DHT22;9382;53.242;10.438;2023-10-13T17:51:40;21.60;99.90
18506;DHT22;9382;53.242;10.438;2023-10-13T17:54:17;21.60;99.90
18506;DHT22;9382;53.242;10.438;2023-10-13T17:56:45;21.60;99.90
18506;DHT22;9382;53.242;10.438;2023-10-13T17:59:12;21.60;99.90
18506;DHT22;9382;53.242;10.438;2023-10-13T18:01:40;21.60;99.90
18506;DHT22;9382;53.242;10.438;2023-10-13T18:04:10;21.50;99.90
18506;DHT22;9382;53.242;10.438;2023-10-13T18:06:43;21.50;99.90
18506;DHT22;9382;53.242;10.438;2023-10-13T18:09:25;21.50;99.90
18506;DHT22;9382;53.242;10.438;2023-10-13T18:12:02;21.50;99.90
18506;DHT22;9382;53.242;10.438;2023-10-13T18:14:55;21.50;99.90
18506;DHT22;9382;53.242;10.438;2023-10-13T18:17:24;21.50;99.90
18506;DHT22;9382;53.242;10.438;2023-10-13T18:19:54;21.40;99.90
18506;DHT22;9382;53.242;10.438;2023-10-13T18:22:23;21.40;99.90
18506;DHT22;9382;53.242;10.438;2023-10-13T18:24:50;21.40;99.90
18506;DHT22;9382;53.242;10.438;2023-10-13T18:27:17;21.40;99.90
18506;DHT22;9382;53.242;10.438;2023-10-13T18:29:46;21.30;99.90
18506;DHT22;9382;53.242;10.438;2023-10-13T18:32:22;21.00;99.90
18506;DHT22;9382;53.242;10.438;2023-10-13T18:41:45;19.50;99.90
18506;DHT22;9382;53.242;10.438;2023-10-13T18:44:21;19.10;99.90
18506;DHT22;9382;53.242;10.438;2023-10-13T18:46:53;18.90;99.90
18506;DHT22;9382;53.242;10.438;2023-10-13T18:49:33;18.80;99.90
18506;DHT22;9382;53.242;10.438;2023-10-13T18:52:06;18.70;99.90
18506;DHT22;9382;53.242;10.438;2023-10-13T18:54:38;18.70;99.90
18506;DHT22;9382;53.242;10.438;2023-10-13T18:57:23;18.60;99.90
18506;DHT22;9382;53.242;10.438;2023-10-13T19:00:03;18.60;99.90
18506;DHT22;9382;53.242;10.438;2023-10-13T19:02:33;18.60;99.90
18506;DHT22;9382;53.242;10.438;2023-10-13T19:05:01;18.70;99.90
18506;DHT22;9382;53.242;10.438;2023-10-13T19:07:37;18.70;99.90
18506;DHT22;9382;53.242;10.438;2023-10-13T19:10:09;18.80;99.90
18506;DHT22;9382;53.242;10.438;2023-10-13T19:12:41;19.10;99.90
18506;DHT22;9382;53.242;10.438;2023-10-13T19:15:44;19.20;99.90
18506;DHT22;9382;53.242;10.438;2023-10-13T19:18:04;19.40;99.90
18506;DHT22;9382;53.242;10.438;2023-10-13T19:20:33;19.60;99.90
18506;DHT22;9382;53.242;10.438;2023-10-13T19:23:05;19.60;99.90
18506;DHT22;9382;53.242;10.438;2023-10-13T19:25:36;19.70;99.90
18506;DHT22;9382;53.242;10.438;2023-10-13T19:28:06;19.80;99.90
18506;DHT22;9382;53.242;10.438;2023-10-13T19:30:38;19.90;99.90
18506;DHT22;9382;53.242;10.438;2023-10-13T19:33:10;19.90;99.90
18506;DHT22;9382;53.242;10.438;2023-10-13T19:35:47;19.90;99.90
18506;DHT22;9382;53.242;10.438;2023-10-13T19:38:28;20.00;99.90
18506;DHT22;9382;53.242;10.438;2023-10-13T19:40:59;20.10;99.90
18506;DHT22;9382;53.242;10.438;2023-10-13T19:43:34;20.10;99.90
18506;DHT22;9382;53.242;10.438;2023-10-13T19:46:05;20.10;99.90
18506;DHT22;9382;53.242;10.438;2023-10-13T19:48:45;20.00;99.90
18506;DHT22;9382;53.242;10.438;2023-10-13T19:51:12;20.10;99.90
18506;DHT22;9382;53.242;10.438;2023-10-13T19:53:40;20.20;99.90
18506;DHT22;9382;53.242;10.438;2023-10-13T19:56:13;20.30;99.90
18506;DHT22;9382;53.242;10.438;2023-10-13T19:58:44;20.40;99.90
18506;DHT22;9382;53.242;10.438;2023-10-13T20:01:13;20.40;99.90
18506;DHT22;9382;53.242;10.438;2023-10-13T20:03:43;20.50;99.90
18506;DHT22;9382;53.242;10.438;2023-10-13T20:06:14;20.40;99.90
18506;DHT22;9382;53.242;10.438;2023-10-13T20:09:23;20.40;99.90
18506;DHT22;9382;53.242;10.438;2023-10-13T20:12:04;20.20;99.90
18506;DHT22;9382;53.242;10.438;2023-10-13T20:14:41;19.70;99.90
18506;DHT22;9382;53.242;10.438;2023-10-13T20:17:14;19.20;99.90
18506;DHT22;9382;53.242;10.438;2023-10-13T20:20:05;18.90;99.90
18506;DHT22;9382;53.242;10.438;2023-10-13T20:22:44;18.60;99.90
18506;DHT22;9382;53.242;10.438;2023-10-13T20:25:37;18.40;99.90
18506;DHT22;9382;53.242;10.438;2023-10-13T20:28:10;18.20;99.90
18506;DHT22;9382;53.242;10.438;2023-10-13T20:30:53;18.10;99.90
18506;DHT22;9382;53.242;10.438;2023-10-13T20:33:31;18.10;99.90
18506;DHT22;9382;53.242;10.438;2023-10-13T20:36:15;18.00;99.90
18506;DHT22;9382;53.242;10.438;2023-10-13T20:39:03;17.90;99.90
18506;DHT22;9382;53.242;10.438;2023-10-13T20:41:41;17.80;99.90
18506;DHT22;9382;53.242;10.438;2023-10-13T20:44:23;17.60;99.90
18506;DHT22;9382;53.242;10.438;2023-10-13T20:47:17;17.50;99.90
18506;DHT22;9382;53.242;10.438;2023-10-13T20:49:44;17.40;99.90
18506;DHT22;9382;53.242;10.438;2023-10-13T20:52:14;17.20;99.90
18506;DHT22;9382;53.242;10.438;2023-10-13T20:54:57;17.10;99.90
18506;DHT22;9382;53.242;10.438;2023-10-13T20:57:24;17.00;99.90
18506;DHT22;9382;53.242;10.438;2023-10-13T20:59:58;16.90;99.90
18506;DHT22;9382;53.242;10.438;2023-10-13T21:02:43;16.90;99.90
18506;DHT22;9382;53.242;10.438;2023-10-13T21:05:37;16.80;99.90
18506;DHT22;9382;53.242;10.438;2023-10-13T21:08:16;16.80;99.90
18506;DHT22;9382;53.242;10.438;2023-10-13T21:10:43;16.70;99.90
18506;DHT22;9382;53.242;10.438;2023-10-13T21:13:18;16.70;99.90
18506;DHT22;9382;53.242;10.438;2023-10-13T21:16:24;16.70;99.90
18506;DHT22;9382;53.242;10.438;2023-10-13T21:18:53;16.70;99.90
18506;DHT22;9382;53.242;10.438;2023-10-13T21:21:55;16.70;99.90
18506;DHT22;9382;53.242;10.438;2023-10-13T21:24:43;16.70;99.90
18506;DHT22;9382;53.242;10.438;2023-10-13T21:27:22;16.70;99.90
18506;DHT22;9382;53.242;10.438;2023-10-13T21:30:28;16.70;99.90
18506;DHT22;9382;53.242;10.438;2023-10-13T21:33:17;16.70;99.90
18506;DHT22;9382;53.242;10.438;2023-10-13T21:38:39;16.50;99.90
18506;DHT22;9382;53.242;10.438;2023-10-13T21:41:09;16.40;99.90
18506;DHT22;9382;53.242;10.438;2023-10-13T21:43:39;16.40;99.90
18506;DHT22;9382;53.242;10.438;2023-10-13T21:46:07;16.30;99.90
18506;DHT22;9382;53.242;10.438;2023-10-13T21:48:50;16.30;99.90
18506;DHT22;9382;53.242;10.438;2023-10-13T21:51:21;16.30;99.90
18506;DHT22;9382;53.242;10.438;2023-10-13T21:53:52;16.30;99.90
18506;DHT22;9382;53.242;10.438;2023-10-13T21:56:21;16.20;99.90
18506;DHT22;9382;53.242;10.438;2023-10-13T21:58:49;16.20;99.90
18506;DHT22;9382;53.242;10.438;2023-10-13T22:01:16;16.20;99.90
18506;DHT22;9382;53.242;10.438;2023-10-13T22:03:58;16.20;99.90
18506;DHT22;9382;53.242;10.438;2023-10-13T22:06:36;16.30;99.90
18506;DHT22;9382;53.242;10.438;2023-10-13T22:09:03;16.30;99.90
18506;DHT22;9382;53.242;10.438;2023-10-13T22:11:35;16.30;99.90
18506;DHT22;9382;53.242;10.438;2023-10-13T22:14:02;16.30;99.90
18506;DHT22;9382;53.242;10.438;2023-10-13T22:16:31;16.30;99.90
18506;DHT22;9382;53.242;10.438;2023-10-13T22:19:00;16.40;99.90
18506;DHT22;9382;53.242;10.438;2023-10-13T22:21:29;16.40;99.90
18506;DHT22;9382;53.242;10.438;2023-10-13T22:23:56;16.50;99.90
18506;DHT22;9382;53.242;10.438;2023-10-13T22:26:29;16.50;99.90
18506;DHT22;9382;53.242;10.438;2023-10-13T22:28:56;16.60;99.90
18506;DHT22;9382;53.242;10.438;2023-10-13T22:31:23;16.60;99.90
18506;DHT22;9382;53.242;10.438;2023-10-13T22:33:54;16.70;99.90
18506;DHT22;9382;53.242;10.438;2023-10-13T22:36:23;16.80;99.90
18506;DHT22;9382;53.242;10.438;2023-10-13T22:38:54;16.80;99.90
18506;DHT22;9382;53.242;10.438;2023-10-13T22:41:24;16.90;99.90
18506;DHT22;9382;53.242;10.438;2023-10-13T22:43:58;17.00;99.90
18506;DHT22;9382;53.242;10.438;2023-10-13T22:46:41;17.10;99.90
18506;DHT22;9382;53.242;10.438;2023-10-13T22:49:22;17.20;99.90
18506;DHT22;9382;53.242;10.438;2023-10-13T22:51:54;17.20;99.90
18506;DHT22;9382;53.242;10.438;2023-10-13T22:54:30;17.20;99.90
18506;DHT22;9382;53.242;10.438;2023-10-13T22:57:11;17.10;99.90
18506;DHT22;9382;53.242;10.438;2023-10-13T22:59:42;17.10;99.90
18506;DHT22;9382;53.242;10.438;2023-10-13T23:05:06;17.00;99.90
18506;DHT22;9382;53.242;10.438;2023-10-13T23:07:56;16.90;99.90
18506;DHT22;9382;53.242;10.438;2023-10-13T23:11:02;16.90;99.90
18506;DHT22;9382;53.242;10.438;2023-10-13T23:13:50;16.90;99.90
18506;DHT22;9382;53.242;10.438;2023-10-13T23:16:17;16.90;99.90
18506;DHT22;9382;53.242;10.438;2023-10-13T23:18:50;16.90;99.90
18506;DHT22;9382;53.242;10.438;2023-10-13T23:21:17;16.90;99.90
18506;DHT22;9382;53.242;10.438;2023-10-13T23:23:49;16.90;99.90
18506;DHT22;9382;53.242;10.438;2023-10-13T23:26:19;16.90;99.90
18506;DHT22;9382;53.242;10.438;2023-10-13T23:28:47;16.90;99.90
18506;DHT22;9382;53.242;10.438;2023-10-13T23:31:22;16.90;99.90
18506;DHT22;9382;53.242;10.438;2023-10-13T23:33:52;16.90;99.90
18506;DHT22;9382;53.242;10.438;2023-10-13T23:36:25;17.00;99.90
18506;DHT22;9382;53.242;10.438;2023-10-13T23:38:53;17.00;99.90
18506;DHT22;9382;53.242;10.438;2023-10-13T23:41:24;17.00;99.90
18506;DHT22;9382;53.242;10.438;2023-10-13T23:43:53;17.00;99.90
18506;DHT22;9382;53.242;10.438;2023-10-13T23:46:24;17.00;99.90
18506;DHT22;9382;53.242;10.438;2023-10-13T23:48:52;17.00;99.90
18506;DHT22;9382;53.242;10.438;2023-10-13T23:51:20;17.00;99.90
18506;DHT22;9382;53.242;10.438;2023-10-13T23:53:47;16.90;99.90
18506;DHT22;9382;53.242;10.438;2023-10-13T23:56:16;17.00;99.90
18506;DHT22;9382;53.242;10.438;2023-10-13T23:58:54;17.00;99.90
